Aérodrome :
LOGIN :

S'inscrire | Disclaimer

   EN    FR    IT 

 










Légende :    VFR   VFR Marginal   IFR   IFR Intensif   IFR Très Intensif
Visi : 
Plafond : 
>= 8 km
>= 3000ft
5 à 8 km
1000 à 3000 ft
1500m à 5 km
500 à 1000 ft
800 à 1500m
200 à 500 ft
< 800m
< 200 ft
Symboles :   Orages  Brouillard  Fortes neiges  Fortes précipitations  Vent > 20 kt
SIGMETs :   Divers  Orages  Givrage  Turbulence  Onde Orograph.  Cendres Volcan.






- Altitude de l'aérodrome : 146 ft
- Code IATA : RKE


EKRK - Roskilde Tune

DERNIER METAR :
  • 021220Z AUTO 27008KT 210V320 9999 FEW030/// FEW057/// 19/11 Q1007

METARs EXPIRÉS :
  • 021150Z AUTO 27010KT 9999 FEW032/// BKN057/// 18/11 Q1007
  • 021120Z AUTO 26010KT 240V300 9999 BKN045/// BKN056/// 19/10 Q1007
  • 021050Z AUTO 27011KT 9999 BKN044/// 19/11 Q1007
  • 021020Z AUTO 28011KT 240V310 9999 SCT031/// SCT049/// 18/10 Q1007

TAF TAF EKRK
Valide du 02 à 12h jusqu'au 02 à 21h UTC


021123Z 0212/0221 28010KT 9999 SCT030
TEMPO 0212/0214 FEW030TCU



MET'MAP, la Météo Aéronautique d'un coup d'oeil ! - Copyright ORBIFLY Décembre 2007 - Disclaimer

ORBIFLY MET'MAP TEAM :

Programmation & Développement : Alexandra Zaïnal
Sur une idée originale de : Baudouin d'Aumeries
Assistance à la programmation : Marc-Olivier Méhu
Soutien technique & logistique : Manuel Goepfert

Contact : metmap@orbifly.com




SOURCES & CREDITS :

   NOAA